Time;durP1;ratioP1;P1;durP2;ratioP2;P2;SDS_P1;SDS_P2;PMS_P1;PMS_P2;Temp;Humidity;BMP_temperature;BMP_pressure;BME280_temperature;BME280_humidity;BME280_pressure;Samples;Min_cycle;Max_cycle;Signal;HPM_P1;HPM_P2
2023/04/29 00:01:44;;;;;;;2.50;1.55;;;;;;;13.66;70.24;100757.19;5163064;28;20042;-83
2023/04/29 00:04:15;;;;;;;2.67;2.45;;;;;;;13.48;71.22;100752.63;5148408;28;20050;-84
2023/04/29 00:06:45;;;;;;;3.63;2.10;;;;;;;13.38;71.79;100750.38;5143979;28;20064;-83
2023/04/29 00:09:16;;;;;;;0.65;0.65;;;;;;;13.58;71.51;100750.53;5164407;28;20614;-83
2023/04/29 00:11:49;;;;;;;2.05;1.85;;;;;;;13.81;69.78;100753.09;5162869;28;20058;-84
2023/04/29 00:14:19;;;;;;;3.65;2.08;;;;;;;13.75;70.20;100758.63;5145641;28;20137;-83
2023/04/29 00:16:50;;;;;;;1.60;1.40;;;;;;;13.27;72.13;100757.78;5160508;28;20070;-83
2023/04/29 00:19:20;;;;;;;1.88;1.73;;;;;;;13.10;72.31;100766.31;5148134;28;20026;-81
2023/04/29 00:21:53;;;;;;;4.68;1.73;;;;;;;13.45;71.02;100768.59;5146343;28;21031;-81
2023/04/29 00:24:23;;;;;;;2.07;1.67;;;;;;;13.38;71.28;100766.19;5149594;28;20394;-81
2023/04/29 00:26:54;;;;;;;1.33;1.23;;;;;;;13.15;71.91;100769.66;5179975;28;20104;-81
2023/04/29 00:29:25;;;;;;;6.05;2.28;;;;;;;13.28;71.54;100766.53;5144156;28;20031;-81
2023/04/29 00:31:55;;;;;;;1.58;1.48;;;;;;;13.47;70.52;100777.31;5143581;28;20053;-82
2023/04/29 00:34:25;;;;;;;2.80;1.75;;;;;;;13.25;71.32;100778.06;5148631;28;20523;-82
2023/04/29 00:36:56;;;;;;;1.10;1.10;;;;;;;13.19;71.20;100781.78;5156652;28;20483;-82
2023/04/29 00:39:26;;;;;;;3.10;2.35;;;;;;;12.97;72.36;100791.38;5150667;28;20488;-82
2023/04/29 00:41:57;;;;;;;2.10;1.92;;;;;;;12.94;72.88;100788.84;5142754;28;20535;-82
2023/04/29 00:44:27;;;;;;;3.67;2.35;;;;;;;12.89;72.72;100799.56;5165880;28;20030;-82
2023/04/29 00:46:58;;;;;;;4.22;3.08;;;;;;;13.22;70.93;100794.00;5161026;28;20035;-81
2023/04/29 00:49:28;;;;;;;1.55;1.45;;;;;;;13.12;71.21;100795.25;5144838;28;20038;-82
2023/04/29 00:51:59;;;;;;;4.75;2.22;;;;;;;13.33;70.45;100793.59;5154414;28;20574;-82
2023/04/29 00:54:30;;;;;;;2.35;1.88;;;;;;;13.07;71.28;100801.53;5158899;28;20027;-81
2023/04/29 00:57:02;;;;;;;3.97;2.38;;;;;;;12.99;71.47;100798.31;5142489;28;20046;-82
2023/04/29 00:59:33;;;;;;;2.90;2.47;;;;;;;13.01;71.17;100798.28;5144017;28;20038;-82
2023/04/29 01:02:03;;;;;;;1.70;1.60;;;;;;;13.17;70.54;100801.19;5164462;28;20050;-82
2023/04/29 01:04:34;;;;;;;1.83;1.73;;;;;;;13.18;70.45;100811.66;5156907;28;20019;-82
2023/04/29 01:07:28;;;;;;;1.60;1.50;;;;;;;12.95;71.66;100814.28;5148366;28;20069;-82
2023/04/29 01:10:27;;;;;;;2.35;2.17;;;;;;;12.65;73.16;100817.06;5162609;28;20041;-82
2023/04/29 01:13:08;;;;;;;6.75;2.15;;;;;;;12.46;73.37;100812.44;5156622;28;20395;-82
2023/04/29 01:15:47;;;;;;;8.90;3.22;;;;;;;12.39;74.34;100819.69;5156711;28;20078;-82
2023/04/29 01:18:24;;;;;;;2.58;2.38;;;;;;;12.28;74.92;100825.28;5167446;28;20038;-82
2023/04/29 01:20:56;;;;;;;3.80;3.30;;;;;;;12.62;73.28;100817.16;5162896;28;20042;-82
2023/04/29 01:23:29;;;;;;;6.75;3.35;;;;;;;12.52;73.96;100822.75;5157354;28;20089;-82
2023/04/29 01:26:00;;;;;;;3.70;2.92;;;;;;;12.25;75.11;100820.13;5157050;28;20042;-82
2023/04/29 01:28:45;;;;;;;5.47;2.53;;;;;;;12.15;75.74;100828.38;5157729;28;20034;-82
2023/04/29 01:31:48;;;;;;;2.53;2.15;;;;;;;12.40;74.44;100831.91;5151402;28;20039;-82
2023/04/29 01:34:33;;;;;;;1.52;1.45;;;;;;;12.38;74.90;100831.13;5171403;28;20037;-82
2023/04/29 01:37:13;;;;;;;6.10;4.10;;;;;;;12.10;75.89;100834.63;5154672;28;20039;-82
2023/04/29 01:40:25;;;;;;;3.85;3.47;;;;;;;12.11;75.90;100832.84;5152962;28;20049;-82
2023/04/29 01:43:04;;;;;;;2.97;2.67;;;;;;;12.44;74.44;100840.56;5179978;28;20046;-82
2023/04/29 01:45:40;;;;;;;5.60;3.40;;;;;;;12.55;73.44;100833.19;5148536;28;20042;-81
2023/04/29 01:48:11;;;;;;;5.55;4.97;;;;;;;12.02;77.05;100841.06;5166026;28;20030;-82
2023/04/29 01:50:41;;;;;;;4.35;3.92;;;;;;;12.31;75.02;100834.00;5162911;28;20075;-82
2023/04/29 01:53:12;;;;;;;5.13;4.57;;;;;;;12.33;75.61;100840.06;5166841;28;20014;-85
2023/04/29 01:55:42;;;;;;;7.97;4.63;;;;;;;11.70;78.97;100840.19;5147245;28;20045;-81
2023/04/29 01:58:13;;;;;;;3.42;3.10;;;;;;;12.14;76.26;100845.91;5131211;28;20026;-83
2023/04/29 02:00:43;;;;;;;5.13;3.92;;;;;;;12.55;73.80;100842.84;5162886;28;20085;-83
2023/04/29 02:03:15;;;;;;;4.28;3.95;;;;;;;11.82;78.05;100847.75;5163751;28;20132;-85
2023/04/29 02:05:45;;;;;;;3.35;2.97;;;;;;;12.17;75.53;100845.81;5146440;28;20042;-84
2023/04/29 02:08:16;;;;;;;3.72;2.95;;;;;;;12.11;75.73;100841.63;5168947;28;20031;-83
2023/04/29 02:10:53;;;;;;;8.20;4.25;;;;;;;11.96;76.72;100845.53;5162557;28;20042;-84
2023/04/29 02:13:24;;;;;;;3.53;3.13;;;;;;;12.08;76.27;100843.47;5167471;28;20031;-84
2023/04/29 02:15:54;;;;;;;8.70;3.38;;;;;;;11.82;77.39;100853.84;5165462;28;20102;-84
2023/04/29 02:18:25;;;;;;;3.53;3.25;;;;;;;11.94;76.47;100857.88;5164705;28;20109;-84
2023/04/29 02:21:00;;;;;;;5.50;4.25;;;;;;;11.86;76.85;100859.88;5164090;28;20038;-83
2023/04/29 02:23:31;;;;;;;4.85;3.08;;;;;;;11.90;76.92;100858.88;5135321;28;20066;-85
2023/04/29 02:26:04;;;;;;;4.88;3.80;;;;;;;11.99;76.50;100854.28;5161256;28;20042;-83
2023/04/29 02:28:35;;;;;;;7.65;4.88;;;;;;;12.09;75.49;100858.34;5167186;28;20316;-85
2023/04/29 02:31:32;;;;;;;3.50;3.20;;;;;;;11.88;76.60;100862.47;5148600;28;20030;-83
2023/04/29 02:34:05;;;;;;;5.72;4.35;;;;;;;11.83;77.11;100870.50;5169198;28;20126;-83
2023/04/29 02:36:35;;;;;;;3.28;1.65;;;;;;;12.15;75.26;100868.69;5160231;28;20103;-83
2023/04/29 02:39:05;;;;;;;4.47;2.95;;;;;;;11.88;76.52;100871.22;5134324;28;20026;-83
2023/04/29 02:41:36;;;;;;;3.95;3.50;;;;;;;11.69;77.72;100878.78;5163611;28;20069;-87
2023/04/29 02:44:07;;;;;;;5.75;3.90;;;;;;;11.68;78.11;100884.09;5163464;28;20052;-83
2023/04/29 02:46:40;;;;;;;4.63;3.85;;;;;;;11.69;78.46;100896.34;5130496;28;20041;-85
2023/04/29 02:49:12;;;;;;;8.57;5.67;;;;;;;11.72;78.72;100894.47;5167313;28;20034;-85
2023/04/29 02:51:43;;;;;;;3.80;3.50;;;;;;;11.54;79.50;100897.63;5145632;28;20288;-83
2023/04/29 02:54:15;;;;;;;6.75;5.30;;;;;;;11.43;80.39;100897.94;5148273;28;20031;-87
2023/04/29 02:56:45;;;;;;;7.10;5.20;;;;;;;11.90;77.47;100900.94;5167187;28;20030;-85
2023/04/29 02:59:16;;;;;;;3.97;2.80;;;;;;;11.39;80.32;100906.78;5145115;28;20094;-83
2023/04/29 03:01:47;;;;;;;3.60;3.30;;;;;;;11.40;80.46;100900.63;5148210;28;20045;-83
2023/04/29 03:04:17;;;;;;;6.72;3.80;;;;;;;11.32;80.54;100911.38;5152412;28;20035;-83
2023/04/29 03:06:48;;;;;;;8.07;6.28;;;;;;;11.00;82.08;100911.31;5148980;28;20046;-82
2023/04/29 03:09:20;;;;;;;6.40;4.13;;;;;;;11.10;81.39;100918.94;5171259;28;20026;-85
2023/04/29 03:11:50;;;;;;;13.52;4.68;;;;;;;11.50;78.87;100915.25;5161006;28;20046;-85
2023/04/29 03:14:21;;;;;;;3.03;2.75;;;;;;;11.08;81.14;100920.75;5159853;28;20037;-85
2023/04/29 03:16:51;;;;;;;3.92;2.80;;;;;;;10.89;82.08;100915.13;5144744;28;20057;-83
2023/04/29 03:19:22;;;;;;;1.92;1.83;;;;;;;10.76;81.83;100917.19;5146356;28;20093;-82
2023/04/29 03:21:52;;;;;;;8.50;5.32;;;;;;;10.70;82.29;100924.28;5161105;28;20053;-84
2023/04/29 03:24:23;;;;;;;2.55;2.35;;;;;;;10.93;81.29;100917.63;5166718;28;20034;-83
2023/04/29 03:26:53;;;;;;;7.15;3.35;;;;;;;10.91;81.13;100927.28;5149782;28;20034;-83
2023/04/29 03:29:24;;;;;;;3.40;2.88;;;;;;;11.08;80.05;100926.00;5160343;28;20026;-83
2023/04/29 03:31:55;;;;;;;3.08;2.17;;;;;;;10.99;80.33;100920.09;5155616;28;20133;-83
2023/04/29 03:34:26;;;;;;;2.33;2.13;;;;;;;11.06;79.78;100930.41;5146651;28;20038;-84
2023/04/29 03:36:56;;;;;;;4.35;3.50;;;;;;;11.15;79.29;100930.19;5158839;28;20042;-84
2023/04/29 03:39:31;;;;;;;4.82;4.40;;;;;;;10.58;81.91;100924.59;5169079;28;20050;-83
2023/04/29 03:42:01;;;;;;;3.45;3.15;;;;;;;10.70;81.53;100931.31;5145782;28;20080;-85
2023/04/29 03:44:32;;;;;;;2.72;2.35;;;;;;;10.65;81.10;100936.66;5147409;28;20030;-86
2023/04/29 03:47:02;;;;;;;1.77;1.67;;;;;;;10.42;82.17;100933.72;5161358;28;20113;-84
2023/04/29 03:49:33;;;;;;;3.75;3.42;;;;;;;10.89;79.59;100936.97;5178216;28;20053;-87
2023/04/29 03:52:04;;;;;;;1.80;1.70;;;;;;;10.90;78.98;100933.44;5165505;28;20073;-84
2023/04/29 03:54:34;;;;;;;3.10;2.83;;;;;;;10.82;79.52;100938.91;5153113;28;20039;-83
2023/04/29 03:57:05;;;;;;;4.03;3.45;;;;;;;10.57;81.45;100937.75;5161987;28;20035;-84
2023/04/29 03:59:35;;;;;;;3.90;3.25;;;;;;;10.66;80.49;100937.53;5159522;28;20107;-87
2023/04/29 04:02:06;;;;;;;6.53;3.80;;;;;;;10.52;81.20;100941.34;5176008;28;20085;-86
2023/04/29 04:04:36;;;;;;;3.00;2.80;;;;;;;10.27;82.33;100941.00;5158273;28;20080;-85
2023/04/29 04:07:07;;;;;;;2.83;2.50;;;;;;;10.19;82.81;100949.03;5151592;28;20109;-86
2023/04/29 04:09:37;;;;;;;4.38;3.00;;;;;;;10.56;80.93;100950.00;5130321;28;20077;-84
2023/04/29 04:12:08;;;;;;;2.65;2.50;;;;;;;10.64;80.63;100953.31;5156676;28;20031;-83
2023/04/29 04:14:38;;;;;;;2.75;2.55;;;;;;;10.44;82.06;100952.91;5145448;28;20062;-84
2023/04/29 04:17:09;;;;;;;3.67;3.33;;;;;;;10.70;80.49;100960.19;5164619;28;20038;-83
2023/04/29 04:19:39;;;;;;;5.50;3.63;;;;;;;10.56;81.39;100960.50;5160003;28;20045;-84
2023/04/29 04:22:10;;;;;;;2.75;2.55;;;;;;;10.61;81.80;100961.28;5148542;28;20034;-85
2023/04/29 04:24:41;;;;;;;3.95;3.60;;;;;;;10.35;83.01;100967.06;5152191;28;20053;-83
2023/04/29 04:27:12;;;;;;;3.30;3.00;;;;;;;10.15;84.90;100962.25;5147014;28;20058;-84
2023/04/29 04:29:42;;;;;;;2.08;1.98;;;;;;;10.36;83.46;100967.03;5156907;28;20034;-86
2023/04/29 04:32:13;;;;;;;2.78;2.58;;;;;;;10.68;81.48;100961.97;5146361;28;20030;-83
2023/04/29 04:34:43;;;;;;;2.17;2.00;;;;;;;10.41;83.18;100977.47;5161543;28;20039;-85
2023/04/29 04:37:14;;;;;;;1.00;1.00;;;;;;;10.15;84.57;100973.63;5167272;28;20022;-86
2023/04/29 04:39:44;;;;;;;13.38;4.18;;;;;;;10.40;83.51;100980.97;5142039;28;20064;-84
2023/04/29 04:42:15;;;;;;;1.20;1.17;;;;;;;10.49;82.37;100985.16;5149416;28;20026;-84
2023/04/29 04:44:45;;;;;;;2.53;2.33;;;;;;;10.30;83.88;100982.88;5145498;28;20041;-84
2023/04/29 04:47:21;;;;;;;3.92;3.63;;;;;;;10.47;83.08;100989.56;5168141;28;20086;-86
2023/04/29 04:49:52;;;;;;;2.17;2.08;;;;;;;10.28;84.18;100989.94;5144472;28;20818;-86
2023/04/29 04:52:30;;;;;;;2.42;2.22;;;;;;;10.36;83.31;100993.28;5167269;28;20025;-85
2023/04/29 04:55:12;;;;;;;2.03;1.92;;;;;;;10.35;84.22;101002.03;5165748;28;20043;-84
2023/04/29 04:57:43;;;;;;;3.75;2.92;;;;;;;10.32;84.02;101002.09;5148876;28;20031;-83
2023/04/29 05:00:14;;;;;;;2.15;1.42;;;;;;;10.15;85.30;101001.56;5167826;28;20101;-84
2023/04/29 05:02:44;;;;;;;2.10;1.92;;;;;;;10.49;82.55;101009.63;5151583;28;20042;-83
2023/04/29 05:05:15;;;;;;;3.22;3.03;;;;;;;10.29;84.05;101017.03;5149187;28;20127;-84
2023/04/29 05:07:46;;;;;;;3.00;2.45;;;;;;;10.48;83.35;101014.91;5165519;28;20031;-85
2023/04/29 05:10:16;;;;;;;2.08;1.73;;;;;;;10.57;82.00;101021.72;5153264;28;20532;-84
2023/04/29 05:12:47;;;;;;;1.92;1.83;;;;;;;10.42;83.37;101022.91;5160741;28;20026;-85
2023/04/29 05:15:18;;;;;;;4.05;1.65;;;;;;;10.12;85.00;101030.50;5152213;28;20082;-83
2023/04/29 05:17:48;;;;;;;1.27;1.23;;;;;;;10.34;83.84;101029.16;5172859;28;20069;-83
2023/04/29 05:20:20;;;;;;;2.53;2.30;;;;;;;10.48;82.90;101035.88;5147893;28;20054;-85
2023/04/29 05:22:50;;;;;;;5.45;0.70;;;;;;;10.46;82.81;101035.03;5144385;28;20034;-85
2023/04/29 05:25:21;;;;;;;1.23;1.15;;;;;;;10.50;82.64;101031.47;5147701;28;20045;-85
2023/04/29 05:27:52;;;;;;;1.88;1.77;;;;;;;10.69;81.11;101037.19;5148399;28;20045;-84
2023/04/29 05:30:22;;;;;;;0.90;0.90;;;;;;;10.82;80.25;101040.38;5160761;28;20061;-86
2023/04/29 05:32:53;;;;;;;4.40;3.25;;;;;;;10.66;81.24;101034.63;5158176;28;20068;-85
2023/04/29 05:35:24;;;;;;;2.60;2.10;;;;;;;10.62;82.17;101036.44;5142372;28;20039;-84
2023/04/29 05:37:54;;;;;;;1.52;1.42;;;;;;;10.41;83.04;101039.53;5144087;28;20023;-85
2023/04/29 05:40:25;;;;;;;3.38;2.15;;;;;;;10.19;83.83;101046.06;5158680;28;20406;-85
2023/04/29 05:42:55;;;;;;;1.65;1.55;;;;;;;10.39;82.52;101053.53;5144733;28;20453;-84
2023/04/29 05:45:26;;;;;;;2.20;1.52;;;;;;;10.39;82.66;101050.06;5143721;28;20039;-85
2023/04/29 05:47:56;;;;;;;2.22;2.08;;;;;;;10.45;82.71;101051.72;5168283;28;20424;-85
2023/04/29 05:50:26;;;;;;;3.03;2.83;;;;;;;10.53;81.83;101055.03;5138766;28;20031;-85
2023/04/29 05:52:57;;;;;;;2.38;1.67;;;;;;;10.41;83.51;101068.41;5137863;28;20037;-85
2023/04/29 05:55:27;;;;;;;1.88;1.63;;;;;;;10.24;84.04;101066.94;5143620;28;20041;-84
2023/04/29 05:57:58;;;;;;;8.02;2.17;;;;;;;10.35;84.36;101077.22;5147254;28;20359;-84
2023/04/29 06:00:28;;;;;;;1.95;1.85;;;;;;;10.22;84.83;101074.84;5155753;28;20101;-84
2023/04/29 06:02:59;;;;;;;1.77;1.67;;;;;;;10.46;83.32;101082.28;5157710;28;20026;-85
2023/04/29 06:05:29;;;;;;;2.55;2.08;;;;;;;10.53;82.73;101083.91;5153982;28;20050;-85
2023/04/29 06:08:00;;;;;;;1.52;1.42;;;;;;;10.20;85.35;101091.53;5156475;28;20121;-84
2023/04/29 06:10:32;;;;;;;2.90;2.40;;;;;;;10.03;86.71;101097.97;5143369;28;20035;-84
2023/04/29 06:13:02;;;;;;;1.45;1.35;;;;;;;10.32;84.97;101101.75;5143631;28;20046;-85
2023/04/29 06:15:33;;;;;;;1.25;1.25;;;;;;;10.65;81.77;101104.63;5142899;28;20043;-85
2023/04/29 06:18:03;;;;;;;1.75;1.65;;;;;;;10.42;84.52;101107.69;5168886;28;20034;-86
2023/04/29 06:20:36;;;;;;;1.63;1.53;;;;;;;10.69;81.57;101110.66;5155058;28;20034;-85
2023/04/29 06:23:07;;;;;;;1.48;1.38;;;;;;;10.63;82.60;101109.03;5165434;28;20027;-85
2023/04/29 06:25:38;;;;;;;1.95;1.85;;;;;;;10.45;83.52;101118.16;5157030;28;20046;-85
2023/04/29 06:28:08;;;;;;;1.50;1.40;;;;;;;10.77;81.51;101115.75;5145732;28;20049;-85
2023/04/29 06:30:38;;;;;;;1.83;1.70;;;;;;;10.80;82.03;101118.28;5150071;28;20048;-85
2023/04/29 06:33:09;;;;;;;2.75;2.47;;;;;;;10.95;79.90;101115.31;5165535;28;20066;-86
2023/04/29 06:35:40;;;;;;;2.75;2.30;;;;;;;10.90;80.20;101113.72;5147984;28;20047;-84
2023/04/29 06:38:11;;;;;;;2.20;1.95;;;;;;;10.58;82.36;101124.00;5166451;28;20086;-87
2023/04/29 06:40:41;;;;;;;4.38;3.30;;;;;;;10.67;81.51;101123.81;5158127;28;20383;-86
2023/04/29 06:43:11;;;;;;;1.13;1.08;;;;;;;10.82;81.15;101127.00;5137186;28;20023;-85
2023/04/29 06:45:45;;;;;;;1.30;1.25;;;;;;;10.60;81.79;101132.72;5138381;28;20101;-85
2023/04/29 06:48:16;;;;;;;1.98;1.67;;;;;;;10.59;82.44;101136.25;5173280;28;20039;-85
2023/04/29 06:50:54;;;;;;;3.78;3.38;;;;;;;10.61;82.84;101136.19;5144670;28;20050;-86
2023/04/29 06:53:25;;;;;;;1.50;1.40;;;;;;;10.71;81.75;101143.00;5155835;28;20416;-86
2023/04/29 06:55:56;;;;;;;1.95;1.85;;;;;;;10.45;81.70;101143.53;5120776;28;20046;-86
2023/04/29 06:58:26;;;;;;;5.18;1.65;;;;;;;10.70;80.29;101147.34;5135972;28;20043;-85
2023/04/29 07:00:56;;;;;;;0.90;0.90;;;;;;;10.48;81.65;101149.56;5151536;28;20050;-85
2023/04/29 07:03:27;;;;;;;1.45;1.35;;;;;;;10.60;81.17;101152.84;5148575;28;20030;-84
2023/04/29 07:05:57;;;;;;;1.48;1.38;;;;;;;10.60;81.11;101147.59;5136527;28;20042;-86
2023/04/29 07:08:28;;;;;;;3.50;1.75;;;;;;;10.74;80.54;101156.06;5145438;28;20035;-85
2023/04/29 07:10:58;;;;;;;3.25;2.58;;;;;;;10.79;79.78;101161.19;5141056;28;20097;-85
2023/04/29 07:13:29;;;;;;;4.35;2.35;;;;;;;10.56;80.76;101165.16;5149848;28;20325;-86
2023/04/29 07:15:59;;;;;;;1.88;1.45;;;;;;;10.61;80.43;101171.19;5148452;28;20473;-85
2023/04/29 07:18:30;;;;;;;2.92;1.08;;;;;;;10.51;81.14;101180.13;5148243;28;20038;-85
2023/04/29 07:21:01;;;;;;;1.98;1.88;;;;;;;10.42;80.19;101183.78;5152341;28;20039;-85
2023/04/29 07:23:31;;;;;;;3.42;2.85;;;;;;;10.64;79.20;101181.59;5155361;28;20114;-85
2023/04/29 07:26:12;;;;;;;1.08;1.08;;;;;;;10.49;79.75;101187.16;5155524;28;20094;-85
2023/04/29 07:28:43;;;;;;;3.95;1.20;;;;;;;10.77;78.29;101176.13;5154299;28;20034;-85
2023/04/29 07:31:15;;;;;;;3.30;2.22;;;;;;;10.70;78.63;101191.97;5134742;28;20034;-85
2023/04/29 07:33:46;;;;;;;0.60;0.60;;;;;;;10.87;77.85;101198.63;5125014;28;20118;-85
2023/04/29 07:36:16;;;;;;;1.30;1.23;;;;;;;10.67;78.90;101206.91;5147117;28;20094;-86
2023/04/29 07:38:47;;;;;;;1.52;1.42;;;;;;;10.65;78.63;101209.59;5170181;28;20040;-85
2023/04/29 07:41:17;;;;;;;1.10;1.08;;;;;;;10.70;78.54;101207.72;5156447;28;20038;-84
2023/04/29 07:43:48;;;;;;;2.00;1.90;;;;;;;10.75;78.16;101206.78;5140919;28;20030;-85
2023/04/29 07:46:18;;;;;;;1.95;1.75;;;;;;;10.86;77.14;101210.91;5133529;28;20062;-84
2023/04/29 07:51:45;;;;;;;2.03;1.60;;;;;;;11.00;76.07;101217.63;5149275;28;20053;-85
2023/04/29 07:54:15;;;;;;;1.48;1.38;;;;;;;10.89;76.94;101219.63;5139116;28;20572;-85
2023/04/29 07:56:45;;;;;;;1.20;1.10;;;;;;;10.86;77.05;101215.31;5120762;28;20121;-84
2023/04/29 07:59:16;;;;;;;0.80;0.80;;;;;;;10.79;76.21;101213.69;5154619;28;20691;-86
2023/04/29 08:01:46;;;;;;;2.40;0.88;;;;;;;11.14;75.79;101217.34;5150449;28;20188;-85
2023/04/29 08:04:17;;;;;;;1.15;1.13;;;;;;;11.15;75.80;101222.59;5135804;28;20042;-83
2023/04/29 08:06:48;;;;;;;2.10;1.90;;;;;;;11.20;75.15;101229.47;5147575;28;20045;-84
2023/04/29 08:09:19;;;;;;;3.15;1.65;;;;;;;11.05;76.02;101225.41;5142434;28;20524;-84
2023/04/29 08:11:50;;;;;;;1.50;1.40;;;;;;;11.11;75.85;101230.56;5138291;28;20093;-83
2023/04/29 08:14:20;;;;;;;1.33;1.27;;;;;;;11.01;76.30;101230.75;5152278;28;20061;-84
2023/04/29 08:16:51;;;;;;;0.77;0.75;;;;;;;11.22;75.08;101238.19;5153481;28;20039;-84
2023/04/29 08:19:21;;;;;;;0.85;0.85;;;;;;;11.27;75.36;101226.72;5152511;28;20042;-84
2023/04/29 08:21:52;;;;;;;4.63;1.45;;;;;;;11.18;75.04;101233.00;5137473;28;20054;-84
2023/04/29 08:24:22;;;;;;;1.85;1.65;;;;;;;11.13;76.18;101236.63;5148948;28;20035;-85
2023/04/29 08:26:53;;;;;;;1.75;1.65;;;;;;;11.17;75.39;101238.31;5158359;28;20513;-84
2023/04/29 08:29:24;;;;;;;8.75;1.35;;;;;;;11.02;75.45;101239.47;5152970;28;20537;-83
2023/04/29 08:32:03;;;;;;;2.10;1.85;;;;;;;11.22;75.06;101241.69;5154136;28;20069;-84
2023/04/29 08:34:35;;;;;;;4.43;2.47;;;;;;;11.07;75.82;101237.63;5151247;28;20034;-84
2023/04/29 08:37:06;;;;;;;1.05;0.93;;;;;;;11.16;75.50;101247.94;5132025;28;20073;-84
2023/04/29 08:39:37;;;;;;;1.63;1.52;;;;;;;11.25;75.54;101249.50;5134502;28;20375;-86
2023/04/29 08:42:10;;;;;;;1.33;1.25;;;;;;;11.21;75.59;101247.81;5156943;28;20062;-84
2023/04/29 08:44:42;;;;;;;4.28;1.77;;;;;;;11.50;74.55;101247.19;5153252;28;20583;-84
2023/04/29 08:47:13;;;;;;;1.30;0.95;;;;;;;11.60;74.04;101255.75;5138842;28;20136;-84
2023/04/29 08:49:43;;;;;;;0.98;0.98;;;;;;;11.30;74.80;101260.78;5147202;28;20027;-85
2023/04/29 08:52:14;;;;;;;0.88;0.88;;;;;;;11.09;75.46;101261.22;5137768;28;20124;-84
2023/04/29 08:54:44;;;;;;;3.10;1.33;;;;;;;11.51;74.24;101269.09;5138933;28;20042;-83
2023/04/29 08:57:15;;;;;;;0.90;0.90;;;;;;;11.55;74.55;101265.47;5137833;28;20023;-84
2023/04/29 08:59:46;;;;;;;2.03;1.50;;;;;;;11.73;73.92;101260.72;5150846;28;20034;-85
2023/04/29 09:02:17;;;;;;;2.15;1.60;;;;;;;11.80;73.79;101267.56;5150405;28;20034;-82
2023/04/29 09:04:50;;;;;;;1.20;1.20;;;;;;;11.63;73.81;101271.44;5154626;28;20034;-85
2023/04/29 09:07:21;;;;;;;1.10;1.10;;;;;;;11.75;74.28;101267.66;5142691;28;20031;-83
2023/04/29 09:09:53;;;;;;;10.80;1.60;;;;;;;11.86;73.21;101272.66;5142176;28;20038;-84
2023/04/29 09:12:25;;;;;;;1.55;1.45;;;;;;;11.83;73.35;101272.75;5141661;28;20023;-83
2023/04/29 09:14:56;;;;;;;0.77;0.77;;;;;;;12.05;72.96;101269.63;5159902;28;20400;-82
2023/04/29 09:17:43;;;;;;;2.47;2.28;;;;;;;12.16;72.41;101274.63;5154627;28;20037;-82
2023/04/29 09:20:20;;;;;;;2.05;1.95;;;;;;;12.22;71.32;101279.75;5167278;28;20053;-81
2023/04/29 09:23:07;;;;;;;0.80;0.80;;;;;;;12.35;71.40;101267.16;5150976;28;20181;-82
2023/04/29 09:26:00;;;;;;;1.35;1.25;;;;;;;12.35;71.57;101277.66;5171342;28;20042;-83
2023/04/29 09:28:42;;;;;;;2.10;1.73;;;;;;;12.41;70.95;101278.34;5161535;28;20148;-82
2023/04/29 09:31:26;;;;;;;1.50;1.42;;;;;;;12.16;70.38;101282.50;5162577;28;20061;-84
2023/04/29 09:33:57;;;;;;;1.02;1.02;;;;;;;12.44;70.91;101282.66;5148911;28;20030;-82
2023/04/29 09:36:34;;;;;;;3.53;1.55;;;;;;;12.45;70.33;101284.41;5150925;28;20034;-82
2023/04/29 09:39:11;;;;;;;1.13;1.08;;;;;;;12.31;70.63;101291.78;5164137;28;20034;-83
2023/04/29 09:41:51;;;;;;;0.95;0.95;;;;;;;12.21;70.87;101293.81;5151482;28;20038;-82
2023/04/29 09:44:34;;;;;;;0.65;0.65;;;;;;;12.34;70.55;101297.00;5140486;28;20034;-82
2023/04/29 09:47:08;;;;;;;;;;;;;;;12.38;70.68;101296.00;5155418;28;20062;-82
2023/04/29 09:49:40;;;;;;;1.20;1.20;;;;;;;12.49;70.26;101306.25;5139914;28;19957;-82
2023/04/29 09:52:13;;;;;;;7.03;0.95;;;;;;;12.54;70.20;101310.50;5144774;28;20042;-82
2023/04/29 09:54:44;;;;;;;1.15;1.13;;;;;;;12.51;70.47;101318.50;5140637;28;20034;-82
2023/04/29 09:57:14;;;;;;;1.58;1.33;;;;;;;12.28;71.14;101319.91;5155601;28;20034;-82
2023/04/29 09:59:45;;;;;;;2.22;2.13;;;;;;;12.33;71.14;101318.94;5152314;28;20034;-83
2023/04/29 10:02:17;;;;;;;2.10;1.98;;;;;;;12.25;71.38;101319.13;5155163;28;20039;-82
2023/04/29 10:04:53;;;;;;;1.08;1.05;;;;;;;12.26;71.58;101324.38;5151210;28;20370;-82
2023/04/29 10:07:25;;;;;;;1.45;1.35;;;;;;;12.37;70.91;101325.84;5144887;28;20038;-82
2023/04/29 10:09:56;;;;;;;0.77;0.77;;;;;;;12.31;71.32;101333.91;5154791;28;22736;-82
2023/04/29 10:12:26;;;;;;;2.15;1.95;;;;;;;12.05;72.39;101323.13;5154271;28;20026;-82
2023/04/29 10:15:14;;;;;;;1.75;1.65;;;;;;;12.08;72.35;101338.81;5159496;28;20492;-82
2023/04/29 10:17:48;;;;;;;2.03;1.92;;;;;;;12.12;72.24;101344.84;5144684;28;20050;-82
2023/04/29 10:20:23;;;;;;;2.17;2.08;;;;;;;12.03;72.18;101340.69;5151615;28;20042;-82
2023/04/29 10:22:55;;;;;;;1.15;1.13;;;;;;;12.13;72.07;101341.31;5160232;28;20035;-82
2023/04/29 10:25:27;;;;;;;1.88;1.77;;;;;;;12.19;71.83;101337.69;5142203;28;20433;-84
2023/04/29 10:27:59;;;;;;;2.65;1.90;;;;;;;11.95;72.33;101338.19;5155676;28;20045;-81
2023/04/29 10:30:31;;;;;;;1.92;1.83;;;;;;;11.81;73.86;101337.63;5156419;28;20038;-83
2023/04/29 10:33:03;;;;;;;4.10;2.45;;;;;;;12.22;71.47;101346.38;5163128;28;20494;-84
2023/04/29 10:35:34;;;;;;;0.98;0.98;;;;;;;12.10;72.68;101349.31;5152272;28;20039;-84
2023/04/29 10:38:10;;;;;;;2.53;2.20;;;;;;;12.23;71.87;101347.25;5157926;28;20077;-85
2023/04/29 10:40:47;;;;;;;4.45;3.03;;;;;;;12.05;72.05;101353.78;5150087;28;20042;-85
2023/04/29 10:43:28;;;;;;;2.83;2.63;;;;;;;11.98;72.52;101353.09;5158396;28;20026;-83
2023/04/29 10:46:20;;;;;;;2.42;2.22;;;;;;;11.91;73.15;101357.59;5113890;28;20448;-84
2023/04/29 10:49:11;;;;;;;2.15;2.00;;;;;;;12.18;71.79;101350.00;5142787;28;20121;-81
2023/04/29 10:51:43;;;;;;;5.93;1.65;;;;;;;12.36;71.20;101347.78;5138748;28;20042;-83
2023/04/29 10:54:15;;;;;;;1.67;1.58;;;;;;;12.27;71.16;101355.00;5150656;28;20089;-84
2023/04/29 10:56:48;;;;;;;1.80;1.70;;;;;;;12.20;71.89;101358.69;5139250;28;20558;-82
2023/04/29 10:59:20;;;;;;;;;;;;;;;12.31;71.31;101354.94;5167078;28;20041;-83
2023/04/29 11:01:52;;;;;;;3.47;2.88;;;;;;;12.03;71.98;101358.22;5146050;28;19945;-83
2023/04/29 11:04:22;;;;;;;8.05;3.03;;;;;;;12.03;72.66;101359.09;5143807;28;20038;-82
2023/04/29 11:06:55;;;;;;;2.92;2.63;;;;;;;12.11;72.20;101357.16;5158503;28;20035;-82
2023/04/29 11:09:27;;;;;;;1.88;1.77;;;;;;;12.24;71.50;101354.22;5169837;28;20565;-83
2023/04/29 11:12:05;;;;;;;3.50;2.20;;;;;;;12.38;70.85;101349.50;5135447;28;20053;-84
2023/04/29 11:14:48;;;;;;;4.00;2.95;;;;;;;12.39;71.17;101358.25;5153829;28;20058;-83
2023/04/29 11:17:22;;;;;;;8.55;4.35;;;;;;;12.40;71.02;101360.00;5168221;28;20049;-83
2023/04/29 11:19:54;;;;;;;1.52;1.42;;;;;;;12.34;71.26;101361.00;5147908;28;20039;-83
2023/04/29 11:22:26;;;;;;;2.08;1.98;;;;;;;12.52;70.42;101354.41;5158584;28;20031;-83
2023/04/29 11:25:03;;;;;;;2.00;1.90;;;;;;;12.61;70.28;101363.84;5156138;28;20046;-83
2023/04/29 11:27:35;;;;;;;1.30;1.25;;;;;;;12.27;71.50;101370.78;5146138;28;20034;-83
2023/04/29 11:30:07;;;;;;;7.67;3.50;;;;;;;12.46;71.15;101366.88;5137654;28;20069;-83
2023/04/29 11:32:41;;;;;;;2.20;2.03;;;;;;;12.32;71.29;101364.56;5155272;28;20401;-83
2023/04/29 11:35:16;;;;;;;2.85;2.40;;;;;;;12.40;71.17;101371.38;5150295;28;20649;-82
2023/04/29 11:37:47;;;;;;;3.35;1.05;;;;;;;12.01;71.92;101375.81;5144600;28;20042;-83
2023/04/29 11:40:17;;;;;;;4.13;2.28;;;;;;;12.26;71.48;101374.34;5155476;28;20437;-83
2023/04/29 11:42:48;;;;;;;2.15;1.67;;;;;;;12.32;70.73;101372.47;5156851;28;20045;-83
2023/04/29 11:45:19;;;;;;;7.35;2.72;;;;;;;12.48;70.84;101365.06;5141518;28;20061;-83
2023/04/29 11:47:49;;;;;;;4.20;3.83;;;;;;;12.28;71.69;101362.00;5141434;28;20043;-83
2023/04/29 11:50:20;;;;;;;2.97;2.05;;;;;;;12.40;71.26;101363.47;5151938;28;20045;-83
2023/04/29 11:52:50;;;;;;;0.88;0.88;;;;;;;12.57;70.82;101367.44;5141444;28;20216;-83
2023/04/29 11:55:21;;;;;;;3.33;1.73;;;;;;;12.63;70.66;101366.44;5136000;28;20042;-83